Flight Track Log - Related Links

Times and Time Zones

All times are in EST time to prevent confusion due to time zone crossing. See the N8317F flight status page for this flight to view local times or setup timezone preferences in your user account.

Time Position Orientation Groundspeed Altitude Reporting Facility
EST Latitude Longitude Course Direction KTS MPH feet Rate Location/Type
Sun 11:13:00 PM 39.6256 -74.4264 34° Northeast  Level Estimated
Sun 11:14:00 PM 39.6596 -74.4247 North  Level FlightAware Approximate
Sun 11:15:00 PM 39.6873 -74.3990 35° Northeast  Level Estimated
Sun 11:16:00 PM 39.7193 -74.3838 20° North  Level FlightAware Approximate
Sun 11:17:00 PM 39.7513 -74.3686 20° North  Level FlightAware Approximate
Sun 11:18:00 PM 39.7833 -74.3534 20° North  Level FlightAware Approximate
Sun 11:19:00 PM 39.8153 -74.3382 20° North  Level FlightAware Approximate
Sun 11:20:00 PM 39.8473 -74.3230 20° North  Level FlightAware Approximate
Sun 11:21:00 PM 39.8792 -74.3077 20° North  Level FlightAware Approximate
Sun 11:22:00 PM 39.9059 -74.2801 43° Northeast  Level Estimated
Sun 11:23:00 PM 39.9356 -74.2584 29° Northeast  Level FlightAware Approximate
Sun 11:24:00 PM 39.9653 -74.2366 29° Northeast  Level FlightAware Approximate
Sun 11:25:00 PM 39.9917 -74.2086 21° North  Level Estimated
Sun 11:26:00 PM 40.0230 -74.1909 23° Northeast  Level FlightAware Approximate
Sun 11:27:00 PM 40.0542 -74.1732 23° Northeast  Level FlightAware Approximate
Sun 11:28:00 PM 40.0802 -74.1444 49° Northeast  Level Estimated
Sun 11:29:00 PM 40.1103 -74.1236 28° Northeast  Level FlightAware Approximate
Sun 11:30:00 PM 40.1360 -74.0944 28° Northeast  Level Estimated
Sun 11:31:00 PM 40.1662 -74.0740 27° Northeast  Level FlightAware Approximate
Sun 11:32:00 PM 40.1965 -74.0535 27° Northeast  Level FlightAware Approximate
Sun 11:33:00 PM 40.2267 -74.0330 27° Northeast  Level FlightAware Approximate
Sun 11:34:00 PM 40.2570 -74.0125 27° Northeast  Level FlightAware Approximate
Sun 11:35:00 PM 40.2872 -73.9919 27° Northeast  Level FlightAware Approximate
Sun 11:35:13 PM 40.1833 -74.1000 27° Northeast 123 142 5,000  Level New York TRACON
Sun 11:36:00 PM 40.3174 -73.9714 27° Northeast  Level FlightAware Approximate
Sun 11:36:13 PM 40.2167 -74.0667 37° Northeast 123 142 5,000  Level New York TRACON
Sun 11:37:00 PM 40.3476 -73.9508 27° Northeast  Level FlightAware Approximate
Sun 11:37:13 PM 40.2500 -74.0500 21° North 122 140 5,000  Level New York TRACON
Sun 11:38:00 PM 40.3778 -73.9302 27° Northeast  Level FlightAware Approximate
Sun 11:38:13 PM 40.2833 -74.0333 21° North 114 131 5,000  Level New York TRACON
Sun 11:39:00 PM 40.4081 -73.9096 27° Northeast  Level FlightAware Approximate
Sun 11:39:13 PM 40.3000 -74.0167 37° Northeast 115 132 5,000  Level New York TRACON
Sun 11:40:00 PM 40.4383 -73.8889 27° Northeast  Level FlightAware Approximate
Sun 11:40:19 PM 40.3333 -74.0000 21° North 118 136 5,000  Level New York TRACON
Sun 11:41:13 PM 40.3667 -73.9667 37° Northeast 135 155 4,500 -526 Descending New York TRACON
Sun 11:42:13 PM 40.4000 -73.9500 21° North 131 151 4,000 -200 Descending New York TRACON
Sun 11:43:13 PM 40.4333 -73.9333 21° North 116 133 4,100 -300 Climbing New York TRACON
Sun 11:45:13 PM 40.5000 -73.8833 30° Northeast 138 159 3,100 -345 Descending New York TRACON
Sun 11:46:07 PM 40.5167 -73.8500 57° Northeast 139 160 3,100  Level New York TRACON
Sun 11:47:07 PM 40.5333 -73.8000 66° East 150 173 3,100  Level New York TRACON
Sun 11:48:13 PM 40.5500 -73.7500 66° East 145 167 3,100  Level New York TRACON
Sun 11:49:13 PM 40.5667 -73.7000 66° East 141 162 3,100  Level New York TRACON
Sun 11:50:13 PM 40.5833 -73.6500 66° East 144 166 3,100  Level New York TRACON
Sun 11:51:13 PM 40.6000 -73.6167 57° Northeast 133 153 3,100 -300 Level New York TRACON
Sun 11:52:13 PM 40.6333 -73.5667 49° Northeast 140 161 2,500 -550 Descending New York TRACON
Sun 11:53:13 PM 40.6500 -73.5333 57° Northeast 149 171 2,000 -250 Descending New York TRACON
Sun 11:54:13 PM 40.6833 -73.5000 37° Northeast 128 147 2,000  Level New York TRACON
Sun 11:55:13 PM 40.7000 -73.4500 66° East 136 157 2,000 -100 Level New York TRACON
Sun 11:56:13 PM 40.7000 -73.4000 90° East 135 155 1,800 -381 Descending New York TRACON
Sun 11:57:19 PM 40.7167 -73.3667 57° Northeast 121 139 1,200 -381 Descending New York TRACON
Sun 11:58:19 PM 40.7167 -73.3833 270° West 77 89 1,000 -100 Descending New York TRACON
Sun 11:59:19 PM 40.7333 -73.4167 303° West 91 105 1,000 100 Level New York TRACON
Mon 12:00:19 AM 40.7333 -73.4333 270° West 95 109 1,200  Climbing New York TRACON
Mon 12:01:19 AM 40.7000 -73.4167 159° South 136 157 1,000 -250 Descending New York TRACON
Mon 12:02:19 AM 40.7000 -73.3833 90° East 95 109 700 -316 Descending New York TRACON
Mon 12:03:13 AM 40.7167 -73.4000 323° Northwest 75 86 400 -333 Descending New York TRACON

Login

Don't have an account? Register now (free) for customized features, flight alerts, and more!